createdAt,value
2023-04-16T00:03:28.886Z,22.20
2023-04-16T00:08:33.137Z,22.10
2023-04-16T00:13:37.687Z,22.10
2023-04-16T00:18:41.909Z,22.10
2023-04-16T00:23:46.349Z,22.10
2023-04-16T00:28:50.596Z,22.10
2023-04-16T00:33:54.837Z,22.00
2023-04-16T00:38:59.071Z,22.00
2023-04-16T00:44:03.214Z,22.00
2023-04-16T00:49:07.355Z,22.00
2023-04-16T00:54:12.915Z,22.00
2023-04-16T00:59:17.032Z,22.00
2023-04-16T01:04:21.775Z,22.00
2023-04-16T01:09:26.028Z,22.00
2023-04-16T01:14:30.052Z,22.10
2023-04-16T01:19:36.751Z,22.00
2023-04-16T01:24:41.299Z,22.00
2023-04-16T01:29:47.274Z,22.00
2023-04-16T01:34:55.092Z,21.90
2023-04-16T01:39:59.222Z,21.90
2023-04-16T01:45:03.208Z,21.90
2023-04-16T01:50:08.223Z,21.90
2023-04-16T01:55:12.561Z,21.90
2023-04-16T02:00:16.700Z,21.80
2023-04-16T02:05:23.275Z,21.80
2023-04-16T02:10:27.521Z,21.80
2023-04-16T02:15:31.950Z,21.80
2023-04-16T02:20:41.000Z,21.80
2023-04-16T02:25:48.607Z,21.80
2023-04-16T02:30:52.638Z,21.70
2023-04-16T02:35:56.575Z,21.70
2023-04-16T02:41:00.706Z,21.70
2023-04-16T02:46:05.787Z,22.10
2023-04-16T02:51:10.008Z,22.40
2023-04-16T02:56:14.153Z,22.60
2023-04-16T03:01:18.727Z,23.00
2023-04-16T03:06:22.620Z,23.10
2023-04-16T03:11:26.657Z,23.20
2023-04-16T03:16:30.876Z,23.30
2023-04-16T03:21:34.910Z,23.20
2023-04-16T03:26:38.839Z,23.20
2023-04-16T03:31:43.299Z,23.10
2023-04-16T03:36:47.730Z,23.10
2023-04-16T03:41:52.276Z,23.20
2023-04-16T03:46:56.361Z,23.30
2023-04-16T03:52:00.997Z,23.30
2023-04-16T03:57:05.202Z,23.40
2023-04-16T04:02:10.240Z,23.30
2023-04-16T04:07:16.334Z,23.30
2023-04-16T04:12:41.581Z,23.20
2023-04-16T04:17:51.255Z,23.30
2023-04-16T04:22:55.952Z,23.20
2023-04-16T04:28:01.992Z,23.00
2023-04-16T04:33:06.629Z,22.90
2023-04-16T04:38:10.917Z,22.90
2023-04-16T04:43:15.255Z,22.80
2023-04-16T04:48:19.703Z,22.80
2023-04-16T04:53:24.050Z,22.70
2023-04-16T04:58:28.685Z,22.70
2023-04-16T05:03:33.013Z,22.60
2023-04-16T05:08:37.258Z,22.50
2023-04-16T05:13:41.723Z,22.50
2023-04-16T05:18:45.949Z,22.40
2023-04-16T05:23:49.962Z,22.40
2023-04-16T05:28:54.329Z,22.40
2023-04-16T05:33:58.467Z,22.30
2023-04-16T05:39:02.559Z,22.30
2023-04-16T05:44:06.813Z,22.30
2023-04-16T05:49:11.908Z,22.20
2023-04-16T05:54:16.226Z,22.10
2023-04-16T05:59:20.242Z,22.10
2023-04-16T06:04:24.485Z,22.10
2023-04-16T06:09:28.825Z,22.10
2023-04-16T06:14:32.851Z,22.10
2023-04-16T06:19:36.808Z,22.10
2023-04-16T06:24:41.534Z,22.10
2023-04-16T06:29:45.539Z,22.10
2023-04-16T06:34:49.494Z,22.10
2023-04-16T06:39:53.764Z,22.10
2023-04-16T06:44:58.075Z,22.10
2023-04-16T06:50:02.202Z,22.20
2023-04-16T06:55:08.797Z,22.10
2023-04-16T07:00:13.458Z,22.20
2023-04-16T07:05:17.557Z,22.20
2023-04-16T07:10:21.754Z,22.10
2023-04-16T07:15:25.743Z,22.00
2023-04-16T07:20:29.886Z,22.10
2023-04-16T07:25:34.016Z,22.10
2023-04-16T07:30:38.165Z,22.10
2023-04-16T07:35:42.310Z,22.00
2023-04-16T07:40:46.624Z,22.10
2023-04-16T07:45:51.008Z,22.20
2023-04-16T07:50:55.110Z,22.20
2023-04-16T07:55:58.932Z,22.20
2023-04-16T08:01:03.370Z,22.20
2023-04-16T08:06:07.413Z,22.20
2023-04-16T08:11:11.625Z,22.20
2023-04-16T08:16:15.890Z,22.20
2023-04-16T08:21:21.248Z,22.30
2023-04-16T08:26:25.872Z,22.40
2023-04-16T08:31:30.050Z,22.40
2023-04-16T08:36:34.270Z,22.40
2023-04-16T08:41:41.053Z,22.50
2023-04-16T08:46:46.880Z,22.50
2023-04-16T08:51:53.007Z,22.50
2023-04-16T08:56:59.517Z,22.70
2023-04-16T09:02:03.802Z,22.80
2023-04-16T09:07:09.914Z,22.80
2023-04-16T09:12:14.153Z,22.70
2023-04-16T09:17:19.824Z,22.70
2023-04-16T09:22:24.167Z,22.50
2023-04-16T09:27:28.905Z,22.50
2023-04-16T09:32:34.414Z,22.60
2023-04-16T09:37:38.928Z,22.70
2023-04-16T09:42:42.956Z,22.70
2023-04-16T09:47:47.952Z,22.70
2023-04-16T09:52:52.248Z,22.70
2023-04-16T09:58:01.669Z,22.70
2023-04-16T10:03:08.923Z,22.70
2023-04-16T10:08:14.461Z,22.70
2023-04-16T10:13:19.600Z,22.90
2023-04-16T10:18:24.089Z,22.80
2023-04-16T10:23:28.627Z,23.00
2023-04-16T10:28:35.608Z,23.10
2023-04-16T10:33:43.354Z,23.40
2023-04-16T10:38:49.672Z,23.30
2023-04-16T10:43:54.288Z,23.20
2023-04-16T10:49:03.314Z,23.30
2023-04-16T10:54:14.914Z,23.30
2023-04-16T10:59:21.566Z,23.30
2023-04-16T11:04:25.752Z,23.30
2023-04-16T11:09:54.488Z,23.30
2023-04-16T11:15:03.881Z,23.20
2023-04-16T11:20:19.662Z,23.30
2023-04-16T11:25:26.281Z,23.30
2023-04-16T11:30:35.706Z,23.40
2023-04-16T11:35:41.104Z,23.30
2023-04-16T11:40:45.148Z,23.20
2023-04-16T11:46:26.954Z,23.30
2023-04-16T11:51:33.917Z,23.50
2023-04-16T11:56:38.082Z,23.40
2023-04-16T12:01:46.449Z,23.50
2023-04-16T12:07:07.245Z,23.70
2023-04-16T12:12:32.125Z,23.60
2023-04-16T12:17:38.398Z,23.60
2023-04-16T12:22:47.745Z,23.80
2023-04-16T12:27:54.194Z,23.70
2023-04-16T12:33:18.958Z,23.60
2023-04-16T12:38:24.612Z,23.70
2023-04-16T12:43:29.271Z,23.70
2023-04-16T12:48:34.137Z,23.70
2023-04-16T12:53:38.008Z,23.70
2023-04-16T12:58:41.823Z,23.80
2023-04-16T13:03:46.985Z,23.90
2023-04-16T13:08:51.271Z,23.90
2023-04-16T13:13:55.515Z,23.80
2023-04-16T13:18:59.451Z,23.70
2023-04-16T13:24:03.983Z,23.70
2023-04-16T13:29:08.800Z,23.70
2023-04-16T13:34:14.481Z,23.60
2023-04-16T13:39:18.748Z,23.60
2023-04-16T13:44:24.307Z,23.60
2023-04-16T13:49:29.376Z,23.50
2023-04-16T13:54:34.017Z,23.50
2023-04-16T13:59:39.500Z,23.50
2023-04-16T14:04:44.517Z,23.50
2023-04-16T14:09:48.965Z,23.50
2023-04-16T14:14:53.002Z,23.40
2023-04-16T14:19:57.110Z,23.50
2023-04-16T14:25:02.068Z,23.50
2023-04-16T14:30:07.795Z,23.40
2023-04-16T14:35:13.113Z,23.40
2023-04-16T14:40:18.516Z,23.40
2023-04-16T14:45:23.537Z,23.40
2023-04-16T14:50:31.065Z,23.40
2023-04-16T14:55:35.291Z,23.30
2023-04-16T15:00:40.731Z,23.30
2023-04-16T15:05:45.808Z,23.30
2023-04-16T15:10:52.716Z,23.30
2023-04-16T15:15:57.456Z,23.30
2023-04-16T15:21:01.535Z,23.30
2023-04-16T15:26:07.266Z,23.30
2023-04-16T15:31:17.022Z,23.20
2023-04-16T15:36:23.961Z,23.20
2023-04-16T15:41:30.849Z,23.20
2023-04-16T15:46:37.085Z,23.20
2023-04-16T15:51:43.651Z,23.20
2023-04-16T15:56:49.181Z,23.20
2023-04-16T16:01:54.352Z,23.20
2023-04-16T16:07:00.240Z,23.10
2023-04-16T16:12:09.250Z,23.10
2023-04-16T16:17:18.448Z,23.10
2023-04-16T16:22:24.543Z,23.10
2023-04-16T16:27:29.636Z,23.10
2023-04-16T16:32:35.224Z,23.00
2023-04-16T16:37:40.147Z,23.00
2023-04-16T16:42:45.569Z,23.00
2023-04-16T16:47:52.067Z,23.00
2023-04-16T16:52:59.918Z,22.90
2023-04-16T16:58:04.672Z,23.00
2023-04-16T17:03:11.176Z,22.90
2023-04-16T17:08:16.521Z,22.90
2023-04-16T17:13:22.847Z,22.90
2023-04-16T17:18:29.292Z,22.80
2023-04-16T17:23:35.880Z,22.90
2023-04-16T17:28:43.310Z,22.80
2023-04-16T17:33:49.926Z,22.80
2023-04-16T17:38:55.811Z,22.80
2023-04-16T17:44:02.963Z,22.80
2023-04-16T17:49:08.444Z,22.80
2023-04-16T17:54:14.554Z,22.70
2023-04-16T17:59:21.848Z,22.70
2023-04-16T18:04:28.810Z,22.70
2023-04-16T18:09:35.845Z,22.70
2023-04-16T18:14:45.894Z,22.70
2023-04-16T18:19:52.984Z,22.70
2023-04-16T18:25:00.046Z,22.80
2023-04-16T18:30:06.411Z,22.80
2023-04-16T18:35:17.203Z,22.90
2023-04-16T18:40:26.409Z,22.90
2023-04-16T18:45:35.302Z,23.00
2023-04-16T18:50:40.830Z,22.90
2023-04-16T18:55:48.936Z,22.90
2023-04-16T19:00:59.778Z,22.90
2023-04-16T19:06:13.010Z,22.90
2023-04-16T19:11:18.949Z,22.80
2023-04-16T19:16:25.889Z,22.80
2023-04-16T19:21:33.979Z,22.80
2023-04-16T19:26:40.120Z,22.80
2023-04-16T19:31:48.340Z,22.90
2023-04-16T19:36:54.905Z,22.90
2023-04-16T19:42:02.843Z,22.80
2023-04-16T19:47:12.766Z,22.80
2023-04-16T19:52:18.046Z,22.70
2023-04-16T19:57:26.306Z,22.80
2023-04-16T20:02:31.542Z,22.70
2023-04-16T20:07:37.504Z,22.70
2023-04-16T20:12:42.771Z,22.70
2023-04-16T20:17:48.786Z,22.90
2023-04-16T20:22:53.872Z,22.90
2023-04-16T20:27:59.535Z,22.90
2023-04-16T20:33:07.665Z,22.80
2023-04-16T20:38:13.460Z,22.80
2023-04-16T20:43:19.761Z,22.80
2023-04-16T20:48:25.809Z,22.80
2023-04-16T20:53:32.090Z,22.80
2023-04-16T20:58:36.653Z,22.80
2023-04-16T21:03:41.500Z,22.70
2023-04-16T21:08:46.061Z,22.80
2023-04-16T21:13:49.991Z,22.70
2023-04-16T21:18:54.014Z,22.80
2023-04-16T21:23:58.272Z,22.70
2023-04-16T21:29:02.491Z,22.60
2023-04-16T21:34:06.442Z,22.60
2023-04-16T21:39:11.512Z,22.50
2023-04-16T21:44:16.128Z,22.50
2023-04-16T21:49:20.050Z,22.50
2023-04-16T21:54:24.180Z,22.50
2023-04-16T21:59:28.118Z,22.40
2023-04-16T22:04:39.030Z,22.50
2023-04-16T22:09:43.248Z,22.50
2023-04-16T22:14:59.707Z,22.50
2023-04-16T22:20:11.812Z,22.50
2023-04-16T22:25:16.044Z,22.50
2023-04-16T22:30:20.158Z,22.50
2023-04-16T22:35:24.287Z,22.50
2023-04-16T22:40:28.109Z,22.40
2023-04-16T22:45:32.350Z,22.50
2023-04-16T22:50:36.497Z,22.50
2023-04-16T22:55:40.714Z,22.40
2023-04-16T23:00:44.953Z,22.40
2023-04-16T23:05:49.731Z,22.40
2023-04-16T23:10:55.137Z,22.40
2023-04-16T23:15:59.313Z,22.30
2023-04-16T23:21:03.261Z,22.30
2023-04-16T23:26:07.374Z,22.30
2023-04-16T23:31:11.546Z,22.30
2023-04-16T23:36:15.742Z,22.20
2023-04-16T23:41:19.774Z,22.20
2023-04-16T23:46:23.768Z,22.20
2023-04-16T23:51:28.243Z,22.20
2023-04-16T23:56:32.069Z,22.20
